Time;durP1;ratioP1;P1;durP2;ratioP2;P2;SDS_P1;SDS_P2;PMS_P1;PMS_P2;Temp;Humidity;BMP_temperature;BMP_pressure;BME280_temperature;BME280_humidity;BME280_pressure;Samples;Min_cycle;Max_cycle;Signal;HPM_P1;HPM_P2
2022/10/21 00:02:04;;;;;;;23.73;17.43;;;9.70;93.00;;;;;;5035174;28;20212;-90
2022/10/21 00:04:31;;;;;;;21.63;16.87;;;9.70;93.00;;;;;;5017333;28;20173;-91
2022/10/21 00:06:56;;;;;;;20.93;18.03;;;9.80;93.10;;;;;;5034947;28;20226;-91
2022/10/21 00:09:22;;;;;;;23.63;17.47;;;9.80;93.00;;;;;;5017319;28;20626;-90
2022/10/21 00:11:47;;;;;;;21.63;18.33;;;9.80;93.10;;;;;;5034885;28;20196;-91
2022/10/21 00:14:13;;;;;;;23.37;18.13;;;9.80;93.20;;;;;;5017612;28;20335;-90
2022/10/21 00:16:38;;;;;;;20.03;17.93;;;9.80;93.20;;;;;;5017185;28;20207;-90
2022/10/21 00:19:04;;;;;;;21.07;17.73;;;9.90;93.20;;;;;;5017102;28;20181;-90
2022/10/21 00:21:30;;;;;;;23.57;18.33;;;9.90;93.20;;;;;;5016878;28;20196;-90
2022/10/21 00:23:55;;;;;;;27.83;17.53;;;9.90;93.30;;;;;;5034615;28;20190;-90
2022/10/21 00:26:21;;;;;;;21.37;18.07;;;9.90;93.30;;;;;;5016990;28;20172;-90
2022/10/21 00:28:47;;;;;;;25.23;17.53;;;10.00;93.40;;;;;;5017381;28;20642;-91
2022/10/21 00:31:14;;;;;;;22.13;19.30;;;10.00;93.50;;;;;;5034586;28;20196;-90
2022/10/21 00:33:40;;;;;;;25.23;18.83;;;10.00;93.40;;;;;;5016797;28;20172;-90
2022/10/21 00:36:06;;;;;;;28.17;20.17;;;9.90;93.40;;;;;;5017116;28;20177;-91
2022/10/21 00:38:33;;;;;;;24.50;19.87;;;10.00;93.50;;;;;;5034502;28;20172;-90
2022/10/21 00:40:59;;;;;;;26.80;20.20;;;10.00;93.50;;;;;;5034284;28;20192;-90
2022/10/21 00:43:26;;;;;;;28.83;19.87;;;9.90;93.50;;;;;;5016748;28;20200;-91
2022/10/21 00:46:01;;;;;;;22.83;18.73;;;9.90;93.50;;;;;;5034654;28;20260;-90
2022/10/21 00:48:37;;;;;;;23.13;20.63;;;9.80;93.60;;;;;;5017453;28;20168;-90
2022/10/21 00:51:10;;;;;;;23.87;19.43;;;9.90;93.70;;;;;;5017424;28;20245;-90
2022/10/21 00:53:38;;;;;;;26.97;21.73;;;9.90;93.70;;;;;;5017116;28;20177;-90
2022/10/21 00:56:11;;;;;;;27.00;20.27;;;9.90;93.70;;;;;;5034248;28;20176;-90
2022/10/21 00:58:38;;;;;;;32.20;20.10;;;10.00;93.80;;;;;;5016537;28;20255;-91
2022/10/21 01:01:06;;;;;;;26.93;20.17;;;10.00;93.80;;;;;;5004745;28;159095;-90
2022/10/21 01:03:33;;;;;;;26.23;21.10;;;10.00;93.80;;;;;;5008363;28;20643;-90
2022/10/21 01:06:02;;;;;;;31.83;20.30;;;10.00;93.90;;;;;;5017382;28;20200;-90
2022/10/21 01:08:28;;;;;;;26.87;20.40;;;10.00;93.90;;;;;;5017333;28;20188;-90
2022/10/21 01:10:53;;;;;;;32.10;20.97;;;10.00;94.00;;;;;;5017114;28;20192;-90
2022/10/21 01:13:49;;;;;;;24.77;20.57;;;10.00;94.00;;;;;;5017255;28;20177;-91
2022/10/21 01:16:52;;;;;;;26.93;20.67;;;10.10;94.00;;;;;;5017253;28;20620;-90
2022/10/21 01:19:36;;;;;;;24.73;20.70;;;10.10;94.10;;;;;;5017199;28;20542;-90
2022/10/21 01:22:08;;;;;;;25.60;20.33;;;10.10;94.10;;;;;;5017148;28;20196;-90
2022/10/21 01:25:15;;;;;;;31.83;21.23;;;10.20;94.20;;;;;;5017816;28;20177;-90
2022/10/21 01:27:57;;;;;;;30.63;20.37;;;10.20;94.20;;;;;;5006443;28;20185;-90
2022/10/21 01:30:49;;;;;;;32.00;20.70;;;10.20;94.20;;;;;;5017936;28;20615;-90
2022/10/21 01:33:33;;;;;;;30.03;20.17;;;10.30;94.20;;;;;;5016998;28;20165;-90
2022/10/21 01:36:16;;;;;;;26.40;21.37;;;10.30;94.20;;;;;;5034597;28;20181;-90
2022/10/21 01:38:53;;;;;;;30.53;22.03;;;10.30;94.20;;;;;;5016707;28;20223;-89
2022/10/21 01:41:51;;;;;;;39.70;21.37;;;10.30;94.20;;;;;;5016757;28;20712;-90
2022/10/21 01:44:16;;;;;;;30.07;19.57;;;10.20;94.20;;;;;;5016748;28;20680;-90
2022/10/21 01:47:07;;;;;;;29.87;23.13;;;10.10;94.20;;;;;;5016744;28;20172;-90
2022/10/21 01:49:39;;;;;;;30.43;21.37;;;10.10;94.20;;;;;;5016566;28;20172;-89
2022/10/21 01:52:05;;;;;;;25.77;19.47;;;10.10;94.30;;;;;;5017106;28;20238;-90
2022/10/21 01:54:43;;;;;;;29.80;20.90;;;10.10;94.20;;;;;;5016909;28;20235;-90
2022/10/21 01:57:12;;;;;;;28.80;22.83;;;10.10;94.30;;;;;;5016690;28;20172;-89
2022/10/21 01:59:41;;;;;;;29.20;22.10;;;10.20;94.30;;;;;;5016366;28;20208;-90
2022/10/21 02:02:09;;;;;;;26.60;20.33;;;10.20;94.30;;;;;;5016462;28;20204;-90
2022/10/21 02:04:37;;;;;;;29.90;21.53;;;10.20;94.30;;;;;;5016553;28;20222;-90
2022/10/21 02:07:03;;;;;;;39.83;22.13;;;10.10;94.30;;;;;;5016397;28;20179;-90
2022/10/21 02:09:29;;;;;;;27.70;19.07;;;10.10;94.40;;;;;;5017160;28;20181;-90
2022/10/21 02:11:59;;;;;;;27.13;21.40;;;10.10;94.40;;;;;;5016466;28;20208;-91
2022/10/21 02:14:49;;;;;;;27.43;20.30;;;10.10;94.40;;;;;;5016137;28;20551;-90
2022/10/21 02:17:17;;;;;;;30.13;20.87;;;10.20;94.50;;;;;;5016331;28;20169;-90
2022/10/21 02:19:43;;;;;;;24.80;19.47;;;10.10;94.40;;;;;;5016214;28;20176;-90
2022/10/21 02:22:11;;;;;;;34.80;20.57;;;10.00;94.40;;;;;;5016205;28;20235;-90
2022/10/21 02:24:57;;;;;;;24.57;21.00;;;10.10;94.40;;;;;;5016062;28;20188;-91
2022/10/21 02:27:23;;;;;;;28.77;20.80;;;10.10;94.40;;;;;;5016474;28;20172;-90
2022/10/21 02:29:53;;;;;;;28.77;20.87;;;10.10;94.40;;;;;;5016123;28;20242;-90
2022/10/21 02:32:34;;;;;;;28.70;20.13;;;10.00;94.40;;;;;;5016079;28;20196;-90
2022/10/21 02:35:11;;;;;;;26.37;20.73;;;10.10;94.50;;;;;;5016045;28;20196;-90
2022/10/21 02:38:05;;;;;;;30.07;20.77;;;10.00;94.40;;;;;;5015988;28;20165;-91
2022/10/21 02:40:36;;;;;;;29.17;20.67;;;10.00;94.50;;;;;;5033596;28;20165;-91
2022/10/21 02:43:16;;;;;;;29.47;19.30;;;10.00;94.50;;;;;;5016044;28;20195;-91
2022/10/21 02:45:45;;;;;;;28.40;20.73;;;10.00;94.50;;;;;;5015956;28;20183;-90
2022/10/21 02:48:11;;;;;;;27.00;20.30;;;10.00;94.50;;;;;;5015745;28;20223;-90
2022/10/21 02:50:37;;;;;;;28.10;18.93;;;10.00;94.50;;;;;;5016689;28;20180;-90
2022/10/21 02:53:02;;;;;;;25.03;18.77;;;9.90;94.50;;;;;;5015616;28;20177;-90
2022/10/21 02:55:28;;;;;;;28.73;19.50;;;9.90;94.50;;;;;;5015758;28;20726;-91
2022/10/21 02:57:53;;;;;;;25.83;20.27;;;10.00;94.50;;;;;;5015765;28;20172;-90
2022/10/21 03:00:19;;;;;;;24.30;19.67;;;10.00;94.50;;;;;;5015587;28;20260;-90
2022/10/21 03:02:44;;;;;;;28.60;20.83;;;10.00;94.60;;;;;;5015569;28;20197;-90
2022/10/21 03:05:11;;;;;;;32.43;23.07;;;10.10;94.60;;;;;;5015676;28;20187;-90
2022/10/21 03:07:37;;;;;;;31.60;21.17;;;10.10;94.60;;;;;;5015587;28;20590;-91
2022/10/21 03:10:04;;;;;;;26.93;19.67;;;10.10;94.60;;;;;;5015709;28;20195;-91
2022/10/21 03:12:29;;;;;;;33.40;19.03;;;10.10;94.60;;;;;;5017025;28;20246;-90
2022/10/21 03:14:55;;;;;;;21.80;17.90;;;10.10;94.60;;;;;;5019689;28;20208;-90
2022/10/21 03:17:21;;;;;;;44.53;19.47;;;10.00;94.60;;;;;;5037334;28;20172;-90
2022/10/21 03:19:46;;;;;;;20.10;17.50;;;10.00;94.60;;;;;;5019495;28;20173;-90
2022/10/21 03:22:12;;;;;;;29.93;18.10;;;10.00;94.60;;;;;;5019215;28;20736;-90
2022/10/21 03:24:37;;;;;;;26.17;18.50;;;10.00;94.60;;;;;;5019372;28;20187;-91
2022/10/21 03:27:04;;;;;;;25.97;18.63;;;10.00;94.60;;;;;;5019207;28;20181;-90
2022/10/21 03:29:30;;;;;;;24.87;19.10;;;10.00;94.60;;;;;;5036819;28;20220;-90
2022/10/21 03:31:55;;;;;;;27.63;20.43;;;10.00;94.60;;;;;;5036884;28;20228;-90
2022/10/21 03:34:21;;;;;;;25.23;19.67;;;10.00;94.60;;;;;;5019226;28;20203;-90
2022/10/21 03:36:47;;;;;;;25.50;20.33;;;9.90;94.60;;;;;;5020010;28;20173;-91
2022/10/21 03:39:12;;;;;;;28.47;20.47;;;9.90;94.60;;;;;;5019189;28;20527;-91
2022/10/21 03:41:38;;;;;;;24.17;19.93;;;9.80;94.50;;;;;;5019256;28;20204;-90
2022/10/21 03:44:04;;;;;;;36.70;22.37;;;9.80;94.60;;;;;;5018919;28;20665;-90
2022/10/21 03:46:30;;;;;;;29.63;21.83;;;9.80;94.50;;;;;;5018890;28;20588;-91
2022/10/21 03:48:55;;;;;;;34.00;21.40;;;9.80;94.60;;;;;;5018829;28;20673;-91
2022/10/21 03:51:21;;;;;;;30.37;22.10;;;9.80;94.60;;;;;;5018711;28;20551;-91
2022/10/21 03:53:46;;;;;;;29.73;21.70;;;9.80;94.60;;;;;;5018613;28;20181;-91
2022/10/21 03:56:12;;;;;;;32.33;22.90;;;9.80;94.60;;;;;;5036331;28;20165;-91
2022/10/21 03:58:38;;;;;;;29.27;21.10;;;9.80;94.60;;;;;;5036630;28;20280;-90
2022/10/21 04:01:04;;;;;;;28.60;21.43;;;9.80;94.70;;;;;;5036103;28;20219;-90
2022/10/21 04:03:29;;;;;;;28.70;21.83;;;9.80;94.60;;;;;;5036183;28;20251;-90
2022/10/21 04:05:55;;;;;;;33.40;21.90;;;9.80;94.70;;;;;;5018560;28;20169;-91
2022/10/21 04:08:21;;;;;;;27.60;20.37;;;9.70;94.60;;;;;;5036134;28;20195;-91
2022/10/21 04:10:46;;;;;;;34.47;20.73;;;9.50;94.60;;;;;;5018415;28;20208;-90
2022/10/21 04:13:12;;;;;;;27.37;21.10;;;9.50;94.50;;;;;;5036377;28;20222;-90
2022/10/21 04:15:38;;;;;;;33.17;22.57;;;9.40;94.60;;;;;;5035955;28;20205;-91
2022/10/21 04:18:05;;;;;;;32.17;20.27;;;9.50;94.60;;;;;;5018296;28;20181;-91
2022/10/21 04:20:30;;;;;;;31.90;20.17;;;9.50;94.70;;;;;;5035891;28;20177;-90
2022/10/21 04:22:56;;;;;;;32.30;22.17;;;9.50;94.70;;;;;;5017868;28;20666;-90
2022/10/21 04:25:21;;;;;;;34.50;21.60;;;9.50;94.70;;;;;;5035820;28;20183;-91
2022/10/21 04:27:47;;;;;;;39.73;22.10;;;9.50;94.70;;;;;;5035759;28;20264;-90
2022/10/21 04:30:12;;;;;;;33.00;21.87;;;9.40;94.70;;;;;;5018367;28;20177;-90
2022/10/21 04:32:38;;;;;;;30.77;23.17;;;9.40;94.70;;;;;;5017994;28;20205;-90
2022/10/21 04:35:04;;;;;;;35.47;22.47;;;9.30;94.70;;;;;;5035839;28;20232;-90
2022/10/21 04:37:29;;;;;;;30.47;22.93;;;9.40;94.70;;;;;;5018053;28;20183;-89
2022/10/21 04:39:56;;;;;;;31.10;22.23;;;9.40;94.80;;;;;;5018877;28;20176;-90
2022/10/21 04:42:22;;;;;;;36.60;23.20;;;9.40;94.80;;;;;;5035886;28;20199;-90
2022/10/21 04:44:47;;;;;;;34.13;22.67;;;9.40;94.80;;;;;;5018900;28;20207;-90
2022/10/21 04:47:13;;;;;;;32.87;23.03;;;9.50;94.90;;;;;;5019375;28;20177;-90
2022/10/21 04:49:39;;;;;;;32.53;22.20;;;9.50;94.90;;;;;;5017933;28;20189;-91
2022/10/21 04:52:04;;;;;;;34.07;22.80;;;9.40;94.90;;;;;;5017813;28;20192;-90
2022/10/21 04:54:30;;;;;;;34.43;23.60;;;9.40;94.90;;;;;;5017777;28;20201;-90
2022/10/21 04:56:55;;;;;;;31.63;22.80;;;9.40;94.90;;;;;;5017617;28;20570;-90
2022/10/21 04:59:21;;;;;;;32.53;22.90;;;9.40;94.90;;;;;;5017605;28;20179;-92
2022/10/21 05:01:47;;;;;;;33.60;22.93;;;9.40;94.90;;;;;;5017334;28;20729;-92
2022/10/21 05:04:12;;;;;;;36.30;22.30;;;9.40;94.90;;;;;;5017446;28;20669;-92
2022/10/21 05:06:38;;;;;;;35.37;23.47;;;9.40;94.90;;;;;;5035357;28;20678;-91
2022/10/21 05:09:03;;;;;;;33.43;22.27;;;9.30;94.90;;;;;;5017718;28;20184;-92
2022/10/21 05:11:29;;;;;;;28.23;22.93;;;9.30;94.90;;;;;;5017238;28;20204;-91
2022/10/21 05:13:55;;;;;;;27.50;21.30;;;9.30;95.00;;;;;;5017167;28;20254;-91
2022/10/21 05:16:22;;;;;;;31.27;20.60;;;9.30;94.90;;;;;;5017213;28;20172;-92
2022/10/21 05:18:48;;;;;;;32.53;21.37;;;9.20;94.90;;;;;;5017179;28;20173;-91
2022/10/21 05:21:14;;;;;;;37.33;22.07;;;9.10;94.90;;;;;;5017001;28;20721;-91
2022/10/21 05:23:39;;;;;;;31.17;21.20;;;9.10;94.90;;;;;;5017139;28;20176;-91
2022/10/21 05:26:05;;;;;;;34.63;22.73;;;9.10;95.00;;;;;;5017158;28;20176;-91
2022/10/21 05:28:30;;;;;;;32.80;21.67;;;9.20;95.00;;;;;;5017133;28;20545;-91
2022/10/21 05:30:56;;;;;;;32.10;24.10;;;9.20;95.00;;;;;;5017014;28;20224;-91
2022/10/21 05:33:21;;;;;;;36.20;24.63;;;9.20;95.00;;;;;;5017000;28;20177;-91
2022/10/21 05:35:57;;;;;;;35.83;23.57;;;9.30;95.10;;;;;;5016115;28;20197;-91
2022/10/21 05:38:23;;;;;;;35.27;22.80;;;9.30;95.00;;;;;;5016910;28;20307;-92
2022/10/21 05:40:48;;;;;;;35.10;23.27;;;9.30;95.10;;;;;;5016930;28;20231;-91
2022/10/21 05:43:14;;;;;;;31.27;22.67;;;9.30;95.10;;;;;;5017433;28;20212;-91
2022/10/21 05:45:39;;;;;;;34.80;23.70;;;9.20;95.00;;;;;;5016732;28;20186;-91
2022/10/21 05:48:05;;;;;;;35.33;23.80;;;9.20;95.10;;;;;;5016811;28;20181;-91
2022/10/21 05:50:30;;;;;;;38.30;24.97;;;9.20;95.10;;;;;;5016568;28;20188;-91
2022/10/21 05:52:57;;;;;;;38.90;23.40;;;9.20;95.10;;;;;;5016543;28;20717;-91
2022/10/21 05:55:23;;;;;;;35.93;23.63;;;9.20;95.10;;;;;;5034191;28;20203;-91
2022/10/21 05:57:48;;;;;;;36.83;23.97;;;9.30;95.10;;;;;;5017043;28;20183;-91
2022/10/21 06:00:14;;;;;;;41.37;26.53;;;9.30;95.20;;;;;;5016601;28;20177;-91
2022/10/21 06:02:40;;;;;;;41.10;25.57;;;9.40;95.20;;;;;;5016488;28;20300;-91
2022/10/21 06:05:06;;;;;;;35.70;25.57;;;9.50;95.20;;;;;;5016337;28;20180;-91
2022/10/21 06:07:31;;;;;;;41.47;25.67;;;9.50;95.20;;;;;;5016322;28;20172;-91
2022/10/21 06:09:57;;;;;;;37.93;25.97;;;9.50;95.20;;;;;;5016273;28;20662;-90
2022/10/21 06:12:22;;;;;;;45.50;27.00;;;9.70;95.30;;;;;;5034012;28;20193;-91
2022/10/21 06:14:48;;;;;;;44.47;25.97;;;9.70;95.30;;;;;;5016364;28;20200;-90
2022/10/21 06:17:13;;;;;;;43.30;24.90;;;9.70;95.30;;;;;;5016529;28;20247;-90
2022/10/21 06:19:39;;;;;;;36.30;24.77;;;9.80;95.30;;;;;;5016408;28;20168;-90
2022/10/21 06:22:04;;;;;;;36.93;24.83;;;9.80;95.40;;;;;;5016126;28;20629;-90
2022/10/21 06:24:30;;;;;;;42.67;25.43;;;9.90;95.40;;;;;;5016281;28;20713;-90
2022/10/21 06:26:55;;;;;;;33.13;25.63;;;9.90;95.40;;;;;;5033731;28;20655;-90
2022/10/21 06:29:22;;;;;;;39.97;26.50;;;9.90;95.40;;;;;;5033847;28;20180;-90
2022/10/21 06:31:47;;;;;;;42.13;27.17;;;10.00;95.40;;;;;;5033614;28;20570;-90
2022/10/21 06:34:13;;;;;;;41.70;25.87;;;9.90;95.40;;;;;;5016003;28;20295;-91
2022/10/21 06:36:39;;;;;;;48.57;26.97;;;9.90;95.40;;;;;;5016042;28;20185;-91
2022/10/21 06:39:05;;;;;;;39.60;26.37;;;9.90;95.40;;;;;;5015955;28;20263;-91
2022/10/21 06:41:31;;;;;;;40.53;28.20;;;9.90;95.40;;;;;;5015839;28;20224;-91
2022/10/21 06:43:56;;;;;;;45.87;28.43;;;10.00;95.40;;;;;;5033571;28;20199;-91
2022/10/21 06:46:22;;;;;;;39.27;28.53;;;10.00;95.40;;;;;;5015758;28;20187;-91
2022/10/21 06:48:48;;;;;;;47.13;27.83;;;10.00;95.50;;;;;;5016228;28;20231;-91
2022/10/21 06:51:16;;;;;;;47.80;28.50;;;10.10;95.50;;;;;;5015977;28;20231;-91
2022/10/21 06:53:43;;;;;;;42.10;27.53;;;10.20;95.50;;;;;;5015955;28;20665;-91
2022/10/21 06:56:15;;;;;;;43.63;28.00;;;10.20;95.50;;;;;;5015963;28;20885;-91
2022/10/21 06:58:45;;;;;;;40.60;27.13;;;10.20;95.50;;;;;;5033672;28;20149;-90
2022/10/21 07:01:13;;;;;;;42.13;27.10;;;10.30;95.60;;;;;;5015773;28;20243;-91
2022/10/21 07:03:39;;;;;;;45.80;28.43;;;10.30;95.60;;;;;;5015487;28;20180;-92
2022/10/21 07:06:04;;;;;;;45.10;28.83;;;10.30;95.60;;;;;;5015652;28;20306;-91
2022/10/21 07:08:31;;;;;;;42.43;27.30;;;10.40;95.60;;;;;;5016382;28;20173;-90
2022/10/21 07:10:57;;;;;;;43.27;27.57;;;10.40;95.60;;;;;;5017440;28;20254;-91
2022/10/21 07:13:23;;;;;;;42.37;26.93;;;10.40;95.60;;;;;;5016618;28;20181;-91
2022/10/21 07:16:06;;;;;;;40.67;28.17;;;10.50;95.60;;;;;;5015873;28;20204;-90
2022/10/21 07:18:33;;;;;;;47.03;28.33;;;10.50;95.70;;;;;;5033319;28;20167;-91
2022/10/21 07:21:07;;;;;;;56.33;28.47;;;10.60;95.70;;;;;;5015241;28;20708;-92
2022/10/21 07:23:33;;;;;;;43.20;27.17;;;10.60;95.70;;;;;;5015915;28;20180;-91
2022/10/21 07:26:02;;;;;;;40.50;27.23;;;10.70;95.70;;;;;;5015316;28;20254;-90
2022/10/21 07:28:28;;;;;;;44.10;28.30;;;10.60;95.70;;;;;;5033056;28;20181;-89
2022/10/21 07:30:53;;;;;;;46.77;27.40;;;10.70;95.70;;;;;;5032944;28;20254;-90
2022/10/21 07:33:19;;;;;;;42.17;28.03;;;10.70;95.70;;;;;;5015243;28;20182;-91
2022/10/21 07:35:45;;;;;;;39.83;26.13;;;10.70;95.70;;;;;;5015269;28;20640;-91
2022/10/21 07:38:11;;;;;;;47.03;28.77;;;10.80;95.70;;;;;;5015153;28;20177;-90
2022/10/21 07:40:40;;;;;;;42.77;28.23;;;10.80;95.70;;;;;;5032801;28;20165;-90
2022/10/21 07:43:06;;;;;;;38.77;27.00;;;10.80;95.70;;;;;;5032835;28;20670;-90
2022/10/21 07:45:32;;;;;;;39.70;27.60;;;10.90;95.70;;;;;;5032780;28;20172;-90
2022/10/21 07:47:58;;;;;;;44.77;26.73;;;10.90;95.70;;;;;;5032756;28;20214;-90
2022/10/21 07:50:23;;;;;;;35.10;25.57;;;10.90;95.70;;;;;;5032521;28;20583;-89
2022/10/21 07:52:49;;;;;;;39.13;25.57;;;10.90;95.70;;;;;;5032879;28;20180;-90
2022/10/21 07:55:16;;;;;;;41.00;26.40;;;10.80;95.60;;;;;;5032927;28;20691;-90
2022/10/21 07:57:42;;;;;;;33.90;25.17;;;10.80;95.60;;;;;;5015022;28;20177;-90
2022/10/21 08:00:09;;;;;;;34.60;25.23;;;10.90;95.70;;;;;;5036386;28;20253;-90
2022/10/21 08:02:36;;;;;;;40.07;25.23;;;10.90;95.60;;;;;;5036355;28;20282;-90
2022/10/21 08:05:02;;;;;;;35.47;25.60;;;10.90;95.60;;;;;;5036207;28;20176;-91
2022/10/21 08:07:30;;;;;;;38.20;27.03;;;10.90;95.60;;;;;;5019100;28;20183;-90
2022/10/21 08:09:56;;;;;;;44.63;26.87;;;11.00;95.70;;;;;;5021344;28;20545;-91
2022/10/21 08:12:22;;;;;;;54.40;37.10;;;11.00;95.60;;;;;;5019121;28;20204;-91
2022/10/21 08:14:48;;;;;;;45.33;33.57;;;11.00;95.60;;;;;;5019523;28;20208;-90
2022/10/21 08:17:13;;;;;;;49.27;33.67;;;11.10;95.70;;;;;;5018391;28;20173;-91
2022/10/21 08:19:39;;;;;;;49.03;32.77;;;11.10;95.70;;;;;;5019276;28;20173;-91
2022/10/21 08:22:05;;;;;;;43.10;29.77;;;11.10;95.70;;;;;;5018313;28;20197;-91
2022/10/21 08:24:30;;;;;;;48.00;29.97;;;11.20;95.70;;;;;;5035934;28;20544;-91
2022/10/21 08:26:56;;;;;;;50.53;33.97;;;11.20;95.70;;;;;;5018294;28;20180;-91
2022/10/21 08:29:22;;;;;;;39.13;28.67;;;11.20;95.70;;;;;;5035975;28;20777;-92
2022/10/21 08:31:47;;;;;;;46.53;29.83;;;11.20;95.80;;;;;;5018766;28;20193;-91
2022/10/21 08:34:13;;;;;;;44.40;29.47;;;11.30;95.70;;;;;;5018255;28;20299;-91
2022/10/21 08:36:38;;;;;;;44.37;29.37;;;11.30;95.80;;;;;;5035987;28;20184;-91
2022/10/21 08:39:05;;;;;;;47.87;31.33;;;11.30;95.80;;;;;;5018349;28;20195;-92
2022/10/21 08:41:36;;;;;;;49.43;29.83;;;11.40;95.80;;;;;;5018428;28;20196;-92
2022/10/21 08:44:18;;;;;;;39.30;28.77;;;11.50;95.80;;;;;;5018971;28;20177;-92
2022/10/21 08:47:09;;;;;;;40.87;28.33;;;11.50;95.80;;;;;;5018312;28;20264;-91
2022/10/21 08:50:10;;;;;;;36.97;27.33;;;11.60;95.80;;;;;;5008853;28;20637;-91
2022/10/21 08:52:49;;;;;;;37.50;26.50;;;11.80;95.90;;;;;;5013793;28;20239;-91
2022/10/21 08:55:19;;;;;;;43.17;26.50;;;11.80;95.80;;;;;;5017601;28;20228;-91
2022/10/21 08:57:46;;;;;;;39.03;25.33;;;11.80;95.80;;;;;;5035423;28;20184;-91
2022/10/21 09:00:20;;;;;;;35.70;26.73;;;12.00;95.80;;;;;;5017664;28;20173;-91
2022/10/21 09:03:04;;;;;;;40.13;25.63;;;12.00;95.80;;;;;;5017828;28;20725;-90
2022/10/21 09:05:45;;;;;;;32.83;25.00;;;12.00;95.80;;;;;;5024197;28;20183;-90
2022/10/21 09:08:52;;;;;;;35.47;25.00;;;12.10;95.80;;;;;;5025740;28;20627;-90
2022/10/21 09:11:31;;;;;;;37.80;26.93;;;12.20;95.80;;;;;;4943788;29;20246;-90
2022/10/21 09:14:11;;;;;;;37.80;25.43;;;12.30;95.80;;;;;;4961613;29;20186;-91
2022/10/21 09:17:02;;;;;;;36.67;24.63;;;12.50;95.90;;;;;;5000425;28;20243;-91
2022/10/21 09:20:00;;;;;;;35.50;23.23;;;12.60;95.80;;;;;;5035242;28;20631;-91
2022/10/21 09:23:04;;;;;;;33.93;24.17;;;12.70;95.70;;;;;;5017343;28;20192;-89
2022/10/21 09:25:45;;;;;;;32.37;21.80;;;12.60;95.70;;;;;;5017535;28;20214;-91
2022/10/21 09:28:13;;;;;;;31.57;22.70;;;12.60;95.60;;;;;;5017175;28;20177;-91
2022/10/21 09:30:41;;;;;;;30.63;22.60;;;12.70;95.60;;;;;;5034581;28;20208;-90
2022/10/21 09:33:28;;;;;;;28.97;23.47;;;12.80;95.70;;;;;;5017030;28;20267;-91
2022/10/21 09:36:28;;;;;;;31.80;23.93;;;12.90;95.60;;;;;;5017064;28;20207;-91
2022/10/21 09:39:01;;;;;;;31.97;23.80;;;13.10;95.60;;;;;;5016892;28;20192;-91
2022/10/21 09:41:35;;;;;;;26.93;23.47;;;13.30;95.60;;;;;;5017093;28;20663;-91
2022/10/21 09:44:00;;;;;;;31.83;25.10;;;13.40;95.60;;;;;;5016836;28;20173;-91
2022/10/21 09:46:26;;;;;;;37.77;24.03;;;13.60;95.50;;;;;;5016769;28;20704;-91
2022/10/21 09:48:54;;;;;;;33.10;24.60;;;13.70;95.50;;;;;;5016751;28;20287;-91
2022/10/21 09:51:24;;;;;;;31.33;21.40;;;13.80;95.30;;;;;;5034163;28;20206;-91
2022/10/21 09:53:54;;;;;;;26.73;21.13;;;13.80;95.30;;;;;;5016882;28;20181;-91
2022/10/21 09:56:24;;;;;;;31.97;21.87;;;13.80;95.10;;;;;;5016546;28;20185;-91
2022/10/21 09:59:02;;;;;;;25.33;21.87;;;13.80;94.90;;;;;;5017054;28;20573;-91
2022/10/21 10:01:28;;;;;;;27.13;20.70;;;13.90;94.70;;;;;;5033954;28;20212;-91
2022/10/21 10:03:54;;;;;;;31.03;21.90;;;13.90;94.40;;;;;;5016321;28;20543;-91
2022/10/21 10:06:41;;;;;;;29.77;24.40;;;14.10;94.40;;;;;;5016650;28;20181;-89
2022/10/21 10:09:28;;;;;;;36.60;21.57;;;14.00;94.10;;;;;;5016451;28;20183;-91
2022/10/21 10:12:05;;;;;;;28.17;20.33;;;14.10;94.00;;;;;;5003900;28;20204;-91
2022/10/21 10:14:37;;;;;;;27.50;19.20;;;14.10;93.80;;;;;;5016692;28;20674;-90
2022/10/21 10:17:28;;;;;;;22.90;18.93;;;14.20;93.40;;;;;;5037512;28;20620;-90
2022/10/21 10:20:02;;;;;;;28.07;19.57;;;14.20;93.50;;;;;;5019402;28;20176;-90
2022/10/21 10:22:40;;;;;;;24.57;19.87;;;14.20;93.30;;;;;;5026569;28;20196;-91
2022/10/21 10:25:17;;;;;;;25.23;19.10;;;14.20;93.00;;;;;;5034146;28;20161;-90
2022/10/21 10:27:55;;;;;;;31.73;19.80;;;14.20;93.10;;;;;;5016353;28;20176;-91
2022/10/21 10:30:23;;;;;;;23.13;18.93;;;14.10;92.90;;;;;;5033542;28;20184;-91
2022/10/21 10:32:51;;;;;;;26.97;19.93;;;14.10;92.90;;;;;;5016287;28;20263;-91
2022/10/21 10:35:53;;;;;;;26.80;19.70;;;14.20;93.00;;;;;;5015596;28;20200;-90
2022/10/21 10:38:35;;;;;;;24.93;18.23;;;14.30;93.00;;;;;;5013005;28;20188;-91
2022/10/21 10:43:49;;;;;;;20.77;18.07;;;14.30;92.70;;;;;;5878727;22;20603;-91
2022/10/21 10:46:28;;;;;;;25.17;18.37;;;14.60;92.90;;;;;;5015866;28;20165;-91
2022/10/21 10:48:57;;;;;;;26.90;18.85;;;14.90;92.80;;;;;;5032463;28;20176;-92
2022/10/21 10:51:28;;;;;;;30.48;18.30;;;15.00;92.70;;;;;;5032148;28;20204;-92
2022/10/21 10:54:06;;;;;;;24.52;17.33;;;15.30;92.70;;;;;;5015665;28;20640;-92
2022/10/21 10:56:52;;;;;;;23.17;17.05;;;15.60;92.60;;;;;;5015675;28;20176;-92
2022/10/21 10:59:54;;;;;;;24.65;16.40;;;15.80;91.90;;;;;;5016066;28;20161;-92
2022/10/21 11:03:02;;;;;;;21.92;15.95;;;16.10;91.90;;;;;;5015504;28;20287;-92
2022/10/21 11:05:42;;;;;;;16.65;14.75;;;16.20;90.20;;;;;;5005615;28;20559;-91
2022/10/21 11:08:40;;;;;;;19.17;14.55;;;16.30;89.90;;;;;;5015595;28;20176;-91
2022/10/21 11:11:12;;;;;;;16.52;14.30;;;16.40;89.60;;;;;;4988640;28;20208;-91
2022/10/21 11:13:39;;;;;;;15.30;13.48;;;16.40;88.90;;;;;;5033727;28;20219;-91
2022/10/21 11:16:23;;;;;;;17.13;13.27;;;16.50;89.10;;;;;;5015477;28;20708;-91
2022/10/21 11:18:58;;;;;;;16.42;12.32;;;16.70;88.90;;;;;;5033372;28;20164;-91
2022/10/21 11:21:47;;;;;;;19.65;13.25;;;16.70;88.30;;;;;;5015795;28;20196;-91
2022/10/21 11:24:37;;;;;;;15.23;12.30;;;16.80;88.20;;;;;;5015751;28;20184;-91
2022/10/21 11:27:13;;;;;;;15.23;11.88;;;16.90;88.10;;;;;;5015279;28;20270;-91
2022/10/21 11:30:08;;;;;;;14.75;11.68;;;17.00;87.90;;;;;;5033023;28;20169;-91
2022/10/21 11:32:46;;;;;;;14.65;10.98;;;16.90;87.70;;;;;;5033037;28;20200;-91
2022/10/21 11:35:37;;;;;;;12.65;11.32;;;17.00;87.50;;;;;;5036797;28;20275;-91
2022/10/21 11:38:28;;;;;;;14.13;12.10;;;17.00;87.10;;;;;;5019129;28;20184;-91
2022/10/21 11:41:19;;;;;;;16.42;11.50;;;17.10;87.30;;;;;;5019066;28;20242;-91
2022/10/21 11:44:03;;;;;;;22.40;10.98;;;17.20;86.80;;;;;;5036883;28;20180;-92
2022/10/21 11:46:40;;;;;;;12.63;10.98;;;17.30;86.60;;;;;;5019066;28;20203;-91
2022/10/21 11:49:24;;;;;;;15.23;11.10;;;17.40;85.90;;;;;;5036608;28;20161;-91
2022/10/21 11:52:25;;;;;;;13.90;10.25;;;17.40;85.20;;;;;;5036566;28;20199;-91
2022/10/21 11:55:15;;;;;;;11.88;10.25;;;17.60;85.70;;;;;;5036692;28;20185;-91
2022/10/21 11:58:07;;;;;;;13.80;11.75;;;17.90;85.70;;;;;;5019464;28;20511;-91
2022/10/21 12:01:00;;;;;;;17.38;11.18;;;18.00;84.50;;;;;;5036442;28;20168;-91
2022/10/21 12:03:38;;;;;;;17.50;11.18;;;18.20;85.40;;;;;;5021638;28;20181;-90
2022/10/21 12:06:17;;;;;;;17.23;11.30;;;18.50;85.00;;;;;;5036764;28;20157;-91
2022/10/21 12:08:58;;;;;;;15.20;10.18;;;18.60;84.30;;;;;;5018876;28;20164;-91
2022/10/21 12:11:35;;;;;;;16.90;10.25;;;18.70;83.40;;;;;;5018460;28;20199;-91
2022/10/21 12:14:22;;;;;;;13.93;10.07;;;18.70;82.50;;;;;;5018533;28;20181;-91
2022/10/21 12:16:50;;;;;;;13.18;9.30;;;18.80;82.50;;;;;;5036158;28;20149;-91
2022/10/21 12:19:17;;;;;;;13.63;9.57;;;18.70;82.00;;;;;;5018432;28;20165;-91
2022/10/21 12:21:44;;;;;;;15.43;9.88;;;18.80;82.90;;;;;;5035887;28;20231;-91
2022/10/21 12:24:09;;;;;;;12.32;8.90;;;18.80;82.30;;;;;;5035922;28;20172;-91
2022/10/21 12:26:41;;;;;;;11.95;9.00;;;18.90;82.40;;;;;;5035897;28;20643;-91
2022/10/21 12:29:23;;;;;;;12.73;9.23;;;18.70;81.10;;;;;;5018206;28;20169;-91
2022/10/21 12:32:05;;;;;;;12.05;8.65;;;18.70;81.70;;;;;;5035901;28;20223;-91
2022/10/21 12:34:31;;;;;;;10.55;8.23;;;18.90;81.60;;;;;;5035697;28;20184;-91
2022/10/21 12:36:57;;;;;;;13.95;7.90;;;19.00;80.90;;;;;;5018094;28;20219;-91
2022/10/21 12:39:31;;;;;;;17.95;12.40;;;19.00;81.10;;;;;;5018108;28;20585;-91
2022/10/21 12:42:10;;;;;;;14.60;11.18;;;18.90;81.20;;;;;;5017838;28;20756;-91
2022/10/21 12:44:37;;;;;;;14.40;8.82;;;18.80;80.70;;;;;;5035268;28;20562;-91
2022/10/21 12:47:22;;;;;;;9.75;7.97;;;18.80;80.50;;;;;;5035840;28;20180;-92
2022/10/21 12:50:18;;;;;;;14.20;8.68;;;18.80;81.20;;;;;;5036188;28;20165;-90
2022/10/21 12:52:46;;;;;;;12.35;8.52;;;18.70;81.10;;;;;;5035639;28;20200;-91
2022/10/21 12:55:22;;;;;;;18.23;9.02;;;18.70;81.30;;;;;;5017622;28;20592;-91
2022/10/21 12:57:59;;;;;;;10.88;8.80;;;18.80;80.90;;;;;;5017697;28;20164;-91